Hub


Voltar

 INFORMAÇÕES METEOROLÓGICAS

METAR FOR GCFV


ADDS - METARS form results

(2342 UTC 19 August 2019)
Data provider http://aviationweather.gov/metar/data/
 
METAR text: GCFV 192330Z AUTO 04015KT 9999 FEW010 22/20 Q1018
Conditions at: GCFV (FUERTEVENTURA AR, ES) observed 2330 UTC 19 August 2019
Temperature: 22.0°C (72°F)
Dewpoint: 20.0°C (68°F) [RH = 88%]
Pressure (altimeter): 30.06 inches Hg (1018.0 mb)
Winds: from the NE (40 degrees) at 17 MPH (15 knots; 7.7 m/s)
Visibility: 6 or more miles (10+ km)
Ceiling: at least 12,000 feet AGL
Clouds: few clouds at 1000 feet AGL
Weather: no significant weather observed at this time

METAR text: GCFV 192300Z AUTO 04015KT 9000 NCD 22/20 Q1018
Conditions at: GCFV (FUERTEVENTURA AR, ES) observed 2300 UTC 19 August 2019
Temperature: 22.0°C (72°F)
Dewpoint: 20.0°C (68°F) [RH = 88%]
Pressure (altimeter): 30.06 inches Hg (1018.0 mb)
Winds: from the NE (40 degrees) at 17 MPH (15 knots; 7.7 m/s)
Visibility: 6 miles ( 9 km)
Ceiling: at least 12,000 feet AGL
Clouds: sky clear below 12,000 feet AGL
Weather: no significant weather observed at this time

Forecast for: GCFV (FUERTEVENTURA AR, ES)
Text: TAF GCFV 192000Z 1921/2021 02014KT 9999 FEW020 TX26/2014Z TN22/2001Z
Forecast period: 2100 UTC 19 August 2019 to 2100 UTC 20 August 2019
Forecast type: FROM: standard forecast or significant change
Winds: from the NNE (20 degrees) at 16 MPH (14 knots; 7.2 m/s)
Visibility: 6 or more miles 10+ km)
Ceiling: at least 12,000 feet AGL
Clouds: few clouds at 2000 feet AGL
Weather: no significant weather forecast for this period
Text: PROB40
Forecast period: 2100 UTC 19 August 2019 to 0600 UTC 20 August 2019
Forecast type: TEMPORARY: The following changes expected for less than half the time period
Visibility: missing
Ceiling: 1400 feet AGL
Clouds: broken clouds at 1400 feet AGL
Weather: no significant weather forecast for this period


 MAPA DO AEROPORTO


 INFORMAÇÕES DA PISTA

Pista 01 Tamanho da pista 7874 ft Largura da pista 148 ft
Elevação da pista 37 ft Ranhura da pista 0 ft Proa da pista 2
Pista 19 Tamanho da pista 7874 ft Largura da pista 148 ft
Elevação da pista 75 ft Ranhura da pista 0 ft Proa da pista 182

 FREQUÊNCIAS DO AEROPORTO

Tipo APP Nome CANARIAS A Frequência 129.3 MHZ
Tipo ATIS Nome ATIS Frequência 118.65 MHZ
Tipo GND Nome GND Frequência 121.7 MHZ
Tipo TWR Nome TWR Frequência 118.5 MHZ

 AUXÍLIOS DE NAVEGAÇÃO PRÓXIMOS AO AEROPORTO

Tipo VOR-DME Nome Fuerteventura Frequência 114100 KHZ